createdAt,value
2023-04-15T00:00:04.162Z,12.55
2023-04-15T00:02:42.579Z,12.55
2023-04-15T00:05:10.953Z,12.55
2023-04-15T00:07:40.602Z,12.56
2023-04-15T00:10:11.353Z,12.57
2023-04-15T00:12:39.749Z,12.57
2023-04-15T00:15:09.252Z,12.57
2023-04-15T00:17:39.307Z,12.57
2023-04-15T00:20:08.560Z,12.53
2023-04-15T00:22:39.056Z,12.54
2023-04-15T00:25:09.515Z,12.52
2023-04-15T00:27:39.416Z,12.52
2023-04-15T00:30:09.363Z,12.49
2023-04-15T00:32:37.309Z,12.46
2023-04-15T00:35:05.785Z,12.45
2023-04-15T00:37:35.171Z,12.40
2023-04-15T00:40:05.933Z,12.42
2023-04-15T00:42:37.058Z,12.40
2023-04-15T00:45:07.408Z,12.39
2023-04-15T00:47:38.218Z,12.38
2023-04-15T00:50:07.320Z,12.42
2023-04-15T00:52:38.215Z,12.43
2023-04-15T00:55:08.037Z,12.38
2023-04-15T00:57:37.533Z,12.36
2023-04-15T01:00:10.681Z,12.36
2023-04-15T01:02:41.028Z,12.23
2023-04-15T01:05:09.748Z,12.28
2023-04-15T01:07:37.654Z,12.33
2023-04-15T01:10:06.202Z,12.27
2023-04-15T01:12:34.786Z,12.35
2023-04-15T01:15:02.796Z,12.36
2023-04-15T01:17:32.879Z,12.31
2023-04-15T01:20:01.748Z,12.33
2023-04-15T01:22:33.359Z,12.31
2023-04-15T01:25:06.255Z,12.33
2023-04-15T01:27:36.827Z,12.31
2023-04-15T01:30:06.880Z,12.33
2023-04-15T01:32:36.422Z,12.34
2023-04-15T01:35:04.987Z,12.34
2023-04-15T01:37:32.965Z,12.36
2023-04-15T01:40:00.956Z,12.37
2023-04-15T01:42:28.900Z,12.37
2023-04-15T01:44:58.251Z,12.35
2023-04-15T01:47:27.144Z,12.37
2023-04-15T01:49:57.026Z,12.35
2023-04-15T01:52:25.678Z,12.30
2023-04-15T01:54:56.111Z,12.29
2023-04-15T01:57:24.445Z,12.29
2023-04-15T01:59:53.027Z,12.29
2023-04-15T02:02:24.944Z,12.33
2023-04-15T02:04:56.321Z,12.36
2023-04-15T02:07:25.461Z,12.38
2023-04-15T02:09:53.452Z,12.44
2023-04-15T02:12:21.411Z,12.38
2023-04-15T02:14:50.854Z,12.50
2023-04-15T02:17:19.480Z,12.55
2023-04-15T02:19:52.018Z,12.58
2023-04-15T02:22:20.185Z,12.60
2023-04-15T02:24:48.374Z,12.64
2023-04-15T02:27:19.391Z,12.69
2023-04-15T02:29:47.389Z,12.71
2023-04-15T02:32:16.910Z,12.75
2023-04-15T02:34:44.972Z,12.79
2023-04-15T02:37:14.747Z,12.79
2023-04-15T02:39:42.775Z,12.82
2023-04-15T02:42:11.512Z,12.82
2023-04-15T02:44:40.719Z,12.81
2023-04-15T02:47:12.495Z,12.80
2023-04-15T02:49:41.309Z,12.82
2023-04-15T02:52:10.240Z,12.81
2023-04-15T02:54:39.771Z,12.77
2023-04-15T02:57:09.015Z,12.78
2023-04-15T02:59:41.582Z,12.78
2023-04-15T03:02:10.352Z,12.75
2023-04-15T03:04:39.878Z,12.77
2023-04-15T03:07:10.048Z,12.73
2023-04-15T03:09:40.498Z,12.70
2023-04-15T03:12:08.780Z,12.70
2023-04-15T03:14:40.154Z,12.67
2023-04-15T03:17:08.630Z,12.64
2023-04-15T03:19:36.899Z,12.58
2023-04-15T03:22:07.115Z,12.59
2023-04-15T03:24:35.048Z,12.58
2023-04-15T03:27:06.363Z,12.55
2023-04-15T03:29:35.730Z,12.57
2023-04-15T03:32:04.340Z,12.58
2023-04-15T03:34:38.216Z,12.54
2023-04-15T03:37:06.804Z,12.55
2023-04-15T03:39:35.156Z,12.55
2023-04-15T03:42:07.146Z,12.56
2023-04-15T03:44:37.545Z,12.56
2023-04-15T03:47:05.503Z,12.55
2023-04-15T03:49:33.969Z,12.53
2023-04-15T03:52:01.916Z,12.52
2023-04-15T03:54:30.221Z,12.47
2023-04-15T03:56:58.432Z,12.48
2023-04-15T03:59:27.982Z,12.36
2023-04-15T04:01:58.613Z,12.42
2023-04-15T04:04:29.678Z,12.39
2023-04-15T04:06:57.652Z,12.34
2023-04-15T04:09:25.851Z,12.35
2023-04-15T04:11:53.992Z,12.33
2023-04-15T04:14:26.646Z,12.31
2023-04-15T04:16:56.704Z,12.31
2023-04-15T04:19:24.652Z,12.31
2023-04-15T04:21:54.202Z,12.27
2023-04-15T04:24:23.240Z,12.26
2023-04-15T04:26:53.936Z,12.22
2023-04-15T04:29:22.124Z,12.21
2023-04-15T04:31:50.158Z,12.17
2023-04-15T04:34:21.753Z,12.19
2023-04-15T04:36:49.761Z,12.15
2023-04-15T04:39:17.628Z,12.13
2023-04-15T04:41:45.912Z,12.09
2023-04-15T04:44:14.937Z,12.05
2023-04-15T04:46:44.025Z,12.07
2023-04-15T04:49:11.951Z,12.04
2023-04-15T04:51:43.443Z,12.01
2023-04-15T04:54:12.964Z,12.01
2023-04-15T04:56:42.407Z,11.94
2023-04-15T04:59:12.941Z,12.00
2023-04-15T05:01:41.016Z,12.02
2023-04-15T05:04:09.081Z,12.01
2023-04-15T05:06:37.494Z,12.02
2023-04-15T05:09:09.318Z,12.04
2023-04-15T05:11:37.980Z,12.06
2023-04-15T05:14:08.614Z,12.06
2023-04-15T05:16:36.664Z,12.06
2023-04-15T05:19:05.891Z,12.03
2023-04-15T05:21:33.872Z,12.04
2023-04-15T05:24:03.600Z,12.01
2023-04-15T05:26:34.025Z,11.98
2023-04-15T05:29:02.358Z,11.93
2023-04-15T05:31:31.947Z,11.92
2023-04-15T05:34:00.145Z,11.88
2023-04-15T05:36:28.699Z,11.84
2023-04-15T05:38:56.726Z,11.81
2023-04-15T05:41:24.695Z,11.80
2023-04-15T05:43:54.215Z,11.81
2023-04-15T05:46:24.676Z,11.78
2023-04-15T05:48:53.795Z,11.75
2023-04-15T05:51:22.688Z,11.74
2023-04-15T05:53:50.826Z,11.71
2023-04-15T05:56:21.452Z,11.62
2023-04-15T05:58:53.682Z,11.59
2023-04-15T06:01:29.408Z,11.56
2023-04-15T06:03:57.638Z,11.55
2023-04-15T06:06:25.664Z,11.51
2023-04-15T06:08:55.772Z,11.51
2023-04-15T06:11:23.675Z,11.51
2023-04-15T06:13:51.551Z,11.54
2023-04-15T06:16:19.763Z,11.53
2023-04-15T06:18:49.072Z,11.56
2023-04-15T06:21:17.018Z,11.63
2023-04-15T06:23:45.136Z,11.72
2023-04-15T06:26:13.058Z,11.86
2023-04-15T06:28:42.399Z,11.96
2023-04-15T06:31:10.752Z,12.10
2023-04-15T06:33:39.829Z,12.20
2023-04-15T06:36:09.567Z,12.30
2023-04-15T06:38:37.614Z,12.38
2023-04-15T06:41:05.910Z,12.47
2023-04-15T06:43:34.299Z,12.54
2023-04-15T06:46:03.015Z,12.64
2023-04-15T06:48:31.016Z,12.71
2023-04-15T06:50:59.272Z,12.79
2023-04-15T06:53:29.034Z,12.85
2023-04-15T06:55:58.393Z,12.94
2023-04-15T06:58:26.568Z,13.04
2023-04-15T07:00:54.611Z,13.13
2023-04-15T07:03:23.842Z,13.20
2023-04-15T07:05:52.075Z,13.31
2023-04-15T07:08:20.495Z,13.40
2023-04-15T07:10:49.791Z,13.51
2023-04-15T07:13:18.439Z,13.55
2023-04-15T07:15:46.484Z,13.64
2023-04-15T07:18:14.469Z,13.65
2023-04-15T07:20:42.407Z,13.74
2023-04-15T07:23:13.451Z,13.84
2023-04-15T07:25:45.847Z,13.92
2023-04-15T07:28:16.651Z,14.00
2023-04-15T07:30:46.272Z,14.11
2023-04-15T07:33:15.859Z,14.20
2023-04-15T07:35:43.966Z,14.23
2023-04-15T07:38:13.539Z,14.29
2023-04-15T07:40:42.429Z,14.31
2023-04-15T07:43:10.854Z,14.35
2023-04-15T07:45:41.319Z,14.40
2023-04-15T07:48:09.755Z,14.45
2023-04-15T07:50:38.126Z,14.49
2023-04-15T07:53:08.335Z,14.54
2023-04-15T07:55:36.286Z,14.62
2023-04-15T07:58:04.477Z,14.73
2023-04-15T08:00:32.551Z,14.82
2023-04-15T08:03:02.363Z,14.87
2023-04-15T08:05:30.559Z,14.94
2023-04-15T08:07:58.686Z,15.00
2023-04-15T08:10:26.597Z,15.02
2023-04-15T08:12:54.965Z,15.08
2023-04-15T08:15:23.520Z,15.06
2023-04-15T08:17:51.593Z,15.09
2023-04-15T08:20:21.232Z,15.06
2023-04-15T08:22:51.990Z,15.12
2023-04-15T08:25:20.294Z,15.21
2023-04-15T08:27:48.348Z,15.38
2023-04-15T08:30:16.482Z,15.50
2023-04-15T08:32:46.288Z,15.63
2023-04-15T08:35:14.520Z,15.69
2023-04-15T08:37:43.906Z,15.75
2023-04-15T08:42:56.759Z,15.80
2023-04-15T08:45:25.183Z,15.85
2023-04-15T08:47:55.830Z,15.93
2023-04-15T08:50:24.550Z,15.99
2023-04-15T08:52:56.476Z,16.02
2023-04-15T08:55:27.824Z,16.07
2023-04-15T08:57:56.094Z,16.17
2023-04-15T09:00:25.010Z,16.25
2023-04-15T09:02:53.808Z,16.33
2023-04-15T09:05:25.262Z,16.37
2023-04-15T09:07:56.238Z,16.40
2023-04-15T09:10:25.652Z,16.47
2023-04-15T09:12:54.654Z,16.50
2023-04-15T09:15:23.858Z,16.49
2023-04-15T09:17:52.100Z,16.55
2023-04-15T09:20:21.785Z,16.51
2023-04-15T09:22:52.016Z,16.50
2023-04-15T09:25:35.052Z,16.48
2023-04-15T09:28:03.866Z,16.38
2023-04-15T09:30:32.622Z,16.39
2023-04-15T09:33:02.272Z,16.41
2023-04-15T09:35:30.376Z,16.54
2023-04-15T09:38:05.145Z,16.67
2023-04-15T09:40:36.853Z,16.82
2023-04-15T09:43:05.226Z,17.01
2023-04-15T09:45:34.008Z,17.23
2023-04-15T09:48:19.655Z,17.42
2023-04-15T09:50:48.948Z,17.53
2023-04-15T09:53:20.867Z,17.70
2023-04-15T09:55:52.429Z,17.78
2023-04-15T09:58:24.166Z,17.86
2023-04-15T10:00:53.039Z,17.90
2023-04-15T10:03:23.854Z,17.83
2023-04-15T10:05:54.228Z,17.79
2023-04-15T10:08:26.207Z,17.89
2023-04-15T10:10:58.725Z,17.96
2023-04-15T10:13:28.810Z,18.07
2023-04-15T10:16:00.225Z,18.18
2023-04-15T10:18:31.791Z,17.83
2023-04-15T10:20:59.819Z,17.68
2023-04-15T10:23:27.989Z,17.56
2023-04-15T10:25:57.378Z,17.36
2023-04-15T10:28:26.870Z,17.49
2023-04-15T10:30:54.973Z,17.67
2023-04-15T10:33:25.004Z,17.77
2023-04-15T10:35:53.906Z,17.73
2023-04-15T10:38:38.714Z,17.95
2023-04-15T10:41:21.552Z,18.22
2023-04-15T10:43:54.645Z,18.40
2023-04-15T10:46:25.733Z,18.55
2023-04-15T10:48:56.234Z,18.52
2023-04-15T10:51:33.426Z,18.57
2023-04-15T10:54:02.221Z,18.48
2023-04-15T10:56:33.048Z,18.65
2023-04-15T10:59:03.447Z,19.01
2023-04-15T11:01:54.288Z,19.41
2023-04-15T11:04:54.423Z,19.67
2023-04-15T11:07:36.209Z,19.52
2023-04-15T11:10:04.865Z,19.36
2023-04-15T11:12:36.362Z,19.40
2023-04-15T11:15:31.073Z,19.42
2023-04-15T11:17:59.590Z,19.43
2023-04-15T11:20:29.994Z,19.49
2023-04-15T11:23:14.097Z,19.54
2023-04-15T11:25:43.630Z,19.63
2023-04-15T11:28:12.457Z,19.58
2023-04-15T11:30:42.186Z,19.36
2023-04-15T11:33:12.313Z,19.34
2023-04-15T11:35:41.907Z,19.57
2023-04-15T11:38:11.643Z,19.53
2023-04-15T11:40:41.031Z,19.53
2023-04-15T11:43:09.732Z,19.26
2023-04-15T11:45:38.422Z,19.29
2023-04-15T11:48:13.065Z,19.36
2023-04-15T11:50:41.758Z,19.50
2023-04-15T11:53:10.960Z,19.52
2023-04-15T11:55:46.368Z,19.47
2023-04-15T11:58:17.264Z,19.59
2023-04-15T12:00:52.461Z,19.75
2023-04-15T12:03:28.665Z,19.90
2023-04-15T12:06:23.149Z,20.02
2023-04-15T12:09:20.347Z,20.03
2023-04-15T12:11:49.921Z,20.29
2023-04-15T12:14:22.705Z,20.38
2023-04-15T12:16:54.074Z,20.60
2023-04-15T12:19:28.733Z,20.40
2023-04-15T12:22:00.884Z,20.42
2023-04-15T12:24:29.329Z,20.35
2023-04-15T12:26:58.359Z,20.28
2023-04-15T12:29:28.655Z,20.31
2023-04-15T12:31:58.535Z,20.24
2023-04-15T12:34:32.196Z,20.23
2023-04-15T12:37:00.914Z,20.37
2023-04-15T12:39:30.806Z,20.45
2023-04-15T12:41:59.466Z,20.62
2023-04-15T12:44:28.016Z,20.99
2023-04-15T12:46:56.226Z,21.09
2023-04-15T12:49:24.527Z,21.25
2023-04-15T12:51:55.656Z,21.29
2023-04-15T12:54:24.884Z,21.46
2023-04-15T12:56:53.195Z,21.64
2023-04-15T12:59:21.318Z,21.83
2023-04-15T13:01:49.730Z,22.00
2023-04-15T13:04:18.145Z,22.16
2023-04-15T13:09:22.737Z,22.54
2023-04-15T13:11:52.770Z,22.75
2023-04-15T13:14:21.049Z,22.91
2023-04-15T13:16:49.850Z,23.02
2023-04-15T13:19:19.008Z,23.25
2023-04-15T13:21:50.406Z,23.47
2023-04-15T13:24:19.930Z,23.22
2023-04-15T13:26:50.347Z,23.05
2023-04-15T13:29:18.859Z,23.12
2023-04-15T13:31:47.446Z,23.28
2023-04-15T13:34:16.058Z,23.51
2023-04-15T13:36:44.059Z,23.63
2023-04-15T13:39:12.087Z,23.64
2023-04-15T13:41:41.489Z,23.71
2023-04-15T13:44:09.492Z,23.46
2023-04-15T13:46:37.902Z,23.10
2023-04-15T13:49:06.084Z,22.80
2023-04-15T13:51:36.375Z,22.40
2023-04-15T13:54:04.596Z,22.21
2023-04-15T13:56:33.059Z,21.98
2023-04-15T13:59:06.698Z,21.83
2023-04-15T14:01:35.234Z,21.72
2023-04-15T14:04:03.621Z,21.74
2023-04-15T14:06:32.256Z,21.80
2023-04-15T14:09:00.699Z,21.70
2023-04-15T14:11:31.057Z,21.62
2023-04-15T14:13:59.264Z,21.61
2023-04-15T14:16:33.620Z,21.52
2023-04-15T14:19:02.411Z,21.29
2023-04-15T14:21:32.840Z,21.26
2023-04-15T14:24:02.214Z,21.49
2023-04-15T14:26:30.526Z,21.58
2023-04-15T14:28:58.430Z,21.63
2023-04-15T14:31:26.472Z,21.79
2023-04-15T14:33:56.018Z,21.68
2023-04-15T14:36:24.346Z,21.64
2023-04-15T14:38:52.537Z,21.59
2023-04-15T14:41:20.884Z,21.44
2023-04-15T14:43:48.843Z,21.40
2023-04-15T14:46:16.868Z,21.30
2023-04-15T14:48:44.941Z,21.30
2023-04-15T14:51:14.356Z,21.30
2023-04-15T14:53:42.774Z,21.20
2023-04-15T14:56:11.000Z,21.23
2023-04-15T14:58:39.721Z,21.08
2023-04-15T15:01:07.874Z,20.82
2023-04-15T15:03:36.362Z,20.72
2023-04-15T15:06:04.681Z,20.71
2023-04-15T15:08:37.146Z,20.62
2023-04-15T15:11:05.454Z,20.74
2023-04-15T15:13:33.795Z,20.80
2023-04-15T15:16:04.998Z,20.82
2023-04-15T15:18:33.273Z,21.11
2023-04-15T15:21:02.439Z,21.18
2023-04-15T15:23:30.595Z,21.12
2023-04-15T15:26:04.765Z,21.14
2023-04-15T15:28:36.276Z,21.04
2023-04-15T15:31:06.986Z,20.96
2023-04-15T15:33:34.965Z,20.93
2023-04-15T15:36:02.880Z,21.20
2023-04-15T15:38:30.918Z,21.23
2023-04-15T15:41:00.441Z,21.25
2023-04-15T15:43:28.586Z,21.15
2023-04-15T15:45:56.548Z,20.95
2023-04-15T15:48:25.283Z,20.63
2023-04-15T15:50:54.542Z,20.24
2023-04-15T15:53:27.336Z,19.99
2023-04-15T15:55:57.025Z,19.70
2023-04-15T15:58:26.482Z,19.54
2023-04-15T16:00:55.010Z,19.33
2023-04-15T16:03:23.971Z,19.22
2023-04-15T16:05:52.134Z,19.30
2023-04-15T16:08:25.871Z,19.37
2023-04-15T16:10:54.007Z,19.56
2023-04-15T16:13:22.834Z,19.71
2023-04-15T16:15:52.316Z,19.79
2023-04-15T16:18:21.679Z,19.95
2023-04-15T16:20:49.720Z,19.86
2023-04-15T16:23:17.746Z,19.66
2023-04-15T16:25:45.768Z,19.55
2023-04-15T16:28:25.706Z,19.34
2023-04-15T16:30:59.078Z,19.26
2023-04-15T16:33:27.537Z,19.16
2023-04-15T16:35:55.510Z,19.11
2023-04-15T16:38:24.291Z,19.06
2023-04-15T16:40:52.729Z,18.99
2023-04-15T16:43:21.374Z,18.84
2023-04-15T16:45:51.229Z,18.67
2023-04-15T16:48:21.144Z,18.48
2023-04-15T16:50:49.135Z,18.29
2023-04-15T16:53:17.118Z,18.07
2023-04-15T16:55:46.434Z,17.83
2023-04-15T16:58:14.472Z,17.62
2023-04-15T17:00:44.005Z,17.55
2023-04-15T17:03:12.156Z,17.51
2023-04-15T17:05:43.274Z,17.51
2023-04-15T17:08:11.287Z,17.44
2023-04-15T17:10:39.252Z,17.36
2023-04-15T17:13:07.541Z,17.39
2023-04-15T17:15:35.521Z,17.34
2023-04-15T17:18:03.759Z,17.33
2023-04-15T17:20:31.743Z,17.38
2023-04-15T17:23:01.420Z,17.37
2023-04-15T17:25:31.702Z,17.40
2023-04-15T17:27:59.651Z,17.52
2023-04-15T17:30:28.074Z,17.70
2023-04-15T17:32:56.121Z,17.75
2023-04-15T17:35:26.056Z,17.78
2023-04-15T17:37:54.109Z,17.64
2023-04-15T17:40:26.325Z,17.53
2023-04-15T17:42:54.864Z,17.42
2023-04-15T17:45:22.996Z,17.25
2023-04-15T17:47:51.139Z,17.15
2023-04-15T17:50:19.476Z,17.11
2023-04-15T17:52:48.436Z,17.04
2023-04-15T17:55:18.171Z,16.96
2023-04-15T17:57:47.990Z,16.88
2023-04-15T18:00:17.649Z,16.76
2023-04-15T18:02:46.040Z,16.65
2023-04-15T18:05:14.797Z,16.60
2023-04-15T18:07:44.622Z,16.57
2023-04-15T18:10:12.893Z,16.57
2023-04-15T18:12:40.846Z,16.55
2023-04-15T18:15:12.196Z,16.52
2023-04-15T18:17:40.160Z,16.48
2023-04-15T18:20:09.015Z,16.45
2023-04-15T18:22:37.269Z,16.44
2023-04-15T18:25:08.351Z,16.41
2023-04-15T18:27:39.278Z,16.41
2023-04-15T18:30:11.414Z,16.35
2023-04-15T18:32:39.839Z,16.33
2023-04-15T18:35:08.440Z,16.31
2023-04-15T18:37:37.047Z,16.27
2023-04-15T18:40:05.911Z,16.26
2023-04-15T18:42:33.923Z,16.31
2023-04-15T18:45:02.163Z,16.33
2023-04-15T18:47:31.516Z,16.30
2023-04-15T18:49:59.566Z,16.26
2023-04-15T18:52:29.790Z,16.24
2023-04-15T18:54:57.766Z,16.21
2023-04-15T18:57:31.138Z,16.20
2023-04-15T19:00:03.623Z,16.25
2023-04-15T19:02:33.083Z,16.29
2023-04-15T19:05:04.209Z,16.31
2023-04-15T19:07:32.322Z,16.30
2023-04-15T19:10:00.510Z,16.36
2023-04-15T19:12:28.801Z,16.41
2023-04-15T19:14:59.305Z,16.37
2023-04-15T19:17:27.702Z,16.34
2023-04-15T19:19:57.249Z,16.32
2023-04-15T19:22:25.249Z,16.26
2023-04-15T19:24:54.103Z,16.25
2023-04-15T19:27:23.647Z,16.29
2023-04-15T19:29:51.745Z,16.33
2023-04-15T19:32:19.706Z,16.34
2023-04-15T19:34:47.682Z,16.39
2023-04-15T19:37:17.218Z,16.39
2023-04-15T19:39:45.194Z,16.37
2023-04-15T19:42:13.129Z,16.29
2023-04-15T19:44:43.241Z,16.27
2023-04-15T19:47:11.222Z,16.32
2023-04-15T19:49:39.279Z,16.35
2023-04-15T19:52:07.290Z,16.34
2023-04-15T19:54:37.131Z,16.32
2023-04-15T19:57:05.463Z,16.35
2023-04-15T19:59:38.331Z,16.31
2023-04-15T20:02:06.466Z,16.34
2023-04-15T20:04:34.841Z,16.37
2023-04-15T20:07:05.207Z,16.36
2023-04-15T20:09:34.643Z,16.34
2023-04-15T20:12:48.309Z,16.32
2023-04-15T20:14:53.464Z,16.31
2023-04-15T20:17:21.426Z,16.29
2023-04-15T20:19:49.585Z,16.26
2023-04-15T20:22:17.561Z,16.29
2023-04-15T20:24:45.678Z,16.28
2023-04-15T20:27:15.143Z,16.23
2023-04-15T20:29:43.148Z,16.18
2023-04-15T20:32:11.644Z,16.15
2023-04-15T20:34:41.413Z,16.15
2023-04-15T20:37:09.425Z,16.15
2023-04-15T20:39:40.787Z,16.15
2023-04-15T20:42:14.729Z,16.18
2023-04-15T20:44:44.087Z,16.18
2023-04-15T20:47:12.517Z,16.17
2023-04-15T20:49:41.197Z,16.15
2023-04-15T20:52:09.139Z,16.14
2023-04-15T20:54:38.793Z,16.15
2023-04-15T20:57:06.858Z,16.14
2023-04-15T20:59:36.030Z,16.14
2023-04-15T21:02:05.628Z,16.11
2023-04-15T21:04:37.962Z,16.07
2023-04-15T21:07:06.056Z,16.07
2023-04-15T21:09:34.447Z,16.09
2023-04-15T21:12:03.523Z,16.09
2023-04-15T21:14:32.620Z,16.06
2023-04-15T21:17:03.535Z,16.06
2023-04-15T21:19:34.354Z,16.04
2023-04-15T21:22:02.404Z,16.02
2023-04-15T21:24:30.301Z,16.04
2023-04-15T21:26:58.542Z,16.02
2023-04-15T21:29:27.943Z,16.02
2023-04-15T21:31:56.038Z,16.00
2023-04-15T21:34:24.817Z,15.99
2023-04-15T21:36:54.295Z,15.98
2023-04-15T21:39:22.610Z,15.98
2023-04-15T21:41:51.940Z,15.96
2023-04-15T21:44:21.784Z,15.91
2023-04-15T21:46:51.685Z,15.87
2023-04-15T21:49:24.889Z,15.84
2023-04-15T21:51:56.116Z,15.83
2023-04-15T21:54:24.349Z,15.85
2023-04-15T21:56:52.387Z,15.88
2023-04-15T21:59:20.697Z,15.89
2023-04-15T22:01:48.958Z,15.88
2023-04-15T22:04:17.987Z,15.83
2023-04-15T22:06:46.419Z,15.81
2023-04-15T22:09:17.774Z,15.76
2023-04-15T22:11:47.273Z,15.76
2023-04-15T22:14:15.492Z,15.77
2023-04-15T22:16:44.351Z,15.79
2023-04-15T22:19:12.423Z,15.84
2023-04-15T22:21:40.423Z,15.83
2023-04-15T22:24:38.888Z,15.90
2023-04-15T22:26:59.042Z,15.94
2023-04-15T22:29:27.048Z,15.96
2023-04-15T22:31:55.109Z,15.97
2023-04-15T22:34:23.354Z,15.98
2023-04-15T22:36:51.449Z,16.00
2023-04-15T22:39:19.555Z,16.04
2023-04-15T22:41:47.574Z,16.06
2023-04-15T22:44:17.305Z,16.08
2023-04-15T22:46:45.386Z,16.05
2023-04-15T22:49:13.384Z,16.06
2023-04-15T22:51:41.352Z,16.04
2023-04-15T22:54:09.481Z,16.01
2023-04-15T22:56:37.467Z,15.97
2023-04-15T22:59:05.559Z,15.95
2023-04-15T23:01:34.934Z,15.88
2023-04-15T23:04:07.113Z,15.84
2023-04-15T23:06:37.943Z,15.83
2023-04-15T23:09:05.925Z,15.83
2023-04-15T23:11:33.947Z,15.82
2023-04-15T23:14:01.995Z,15.81
2023-04-15T23:16:29.997Z,15.82
2023-04-15T23:18:59.586Z,15.79
2023-04-15T23:21:28.463Z,15.80
2023-04-15T23:23:56.476Z,15.80
2023-04-15T23:26:24.861Z,15.80
2023-04-15T23:28:53.212Z,15.79
2023-04-15T23:31:24.186Z,15.81
2023-04-15T23:33:52.242Z,15.83
2023-04-15T23:36:21.614Z,15.85
2023-04-15T23:38:49.675Z,15.86
2023-04-15T23:41:19.269Z,15.88
2023-04-15T23:43:47.297Z,15.92
2023-04-15T23:46:16.922Z,15.96
2023-04-15T23:48:49.836Z,16.00
2023-04-15T23:51:19.115Z,16.01
2023-04-15T23:53:52.388Z,15.98
2023-04-15T23:56:20.874Z,15.99
2023-04-15T23:58:48.892Z,15.99
